sensor_id;sensor_type;location;lat;lon;timestamp;P1;durP1;ratioP1;P2;durP2;ratioP2
9838;SDS011;4958;48.150;11.506;2023-08-06T00:00:12;4.47;;;3.97;;
9838;SDS011;4958;48.150;11.506;2023-08-06T00:02:38;3.85;;;3.45;;
9838;SDS011;4958;48.150;11.506;2023-08-06T00:05:05;3.80;;;3.50;;
9838;SDS011;4958;48.150;11.506;2023-08-06T00:07:32;5.15;;;3.50;;
9838;SDS011;4958;48.150;11.506;2023-08-06T00:09:58;3.88;;;3.58;;
9838;SDS011;4958;48.150;11.506;2023-08-06T00:12:25;3.83;;;3.33;;
9838;SDS011;4958;48.150;11.506;2023-08-06T00:14:51;5.07;;;3.63;;
9838;SDS011;4958;48.150;11.506;2023-08-06T00:17:27;3.70;;;3.40;;
9838;SDS011;4958;48.150;11.506;2023-08-06T00:19:57;3.70;;;3.40;;
9838;SDS011;4958;48.150;11.506;2023-08-06T00:22:29;4.30;;;3.30;;
9838;SDS011;4958;48.150;11.506;2023-08-06T00:24:55;3.60;;;3.30;;
9838;SDS011;4958;48.150;11.506;2023-08-06T00:27:22;3.88;;;3.25;;
9838;SDS011;4958;48.150;11.506;2023-08-06T00:29:49;3.35;;;3.00;;
9838;SDS011;4958;48.150;11.506;2023-08-06T00:32:15;3.42;;;3.13;;
9838;SDS011;4958;48.150;11.506;2023-08-06T00:34:46;2.92;;;2.72;;
9838;SDS011;4958;48.150;11.506;2023-08-06T00:37:17;3.42;;;3.13;;
9838;SDS011;4958;48.150;11.506;2023-08-06T00:39:44;4.25;;;3.00;;
9838;SDS011;4958;48.150;11.506;2023-08-06T00:42:11;2.97;;;2.78;;
9838;SDS011;4958;48.150;11.506;2023-08-06T00:44:38;3.08;;;2.70;;
9838;SDS011;4958;48.150;11.506;2023-08-06T00:47:04;2.90;;;2.70;;
9838;SDS011;4958;48.150;11.506;2023-08-06T00:49:33;3.45;;;3.15;;
9838;SDS011;4958;48.150;11.506;2023-08-06T00:52:02;3.30;;;3.00;;
9838;SDS011;4958;48.150;11.506;2023-08-06T00:54:30;3.33;;;2.95;;
9838;SDS011;4958;48.150;11.506;2023-08-06T00:56:59;3.00;;;2.80;;
9838;SDS011;4958;48.150;11.506;2023-08-06T00:59:33;3.25;;;2.95;;
9838;SDS011;4958;48.150;11.506;2023-08-06T01:02:00;3.35;;;3.05;;
9838;SDS011;4958;48.150;11.506;2023-08-06T01:04:26;3.45;;;2.80;;
9838;SDS011;4958;48.150;11.506;2023-08-06T01:06:56;3.33;;;2.92;;
9838;SDS011;4958;48.150;11.506;2023-08-06T01:09:34;4.55;;;2.55;;
9838;SDS011;4958;48.150;11.506;2023-08-06T01:12:09;2.85;;;2.65;;
9838;SDS011;4958;48.150;11.506;2023-08-06T01:14:47;2.67;;;2.47;;
9838;SDS011;4958;48.150;11.506;2023-08-06T01:17:23;3.30;;;2.50;;
9838;SDS011;4958;48.150;11.506;2023-08-06T01:19:56;3.08;;;2.70;;
9838;SDS011;4958;48.150;11.506;2023-08-06T01:22:24;2.95;;;2.70;;
9838;SDS011;4958;48.150;11.506;2023-08-06T01:24:50;3.25;;;3.05;;
9838;SDS011;4958;48.150;11.506;2023-08-06T01:27:20;3.30;;;3.03;;
9838;SDS011;4958;48.150;11.506;2023-08-06T01:29:56;3.70;;;3.40;;
9838;SDS011;4958;48.150;11.506;2023-08-06T01:32:26;3.80;;;3.50;;
9838;SDS011;4958;48.150;11.506;2023-08-06T01:34:57;4.25;;;3.42;;
9838;SDS011;4958;48.150;11.506;2023-08-06T01:37:27;4.20;;;3.55;;
9838;SDS011;4958;48.150;11.506;2023-08-06T01:39:54;4.07;;;3.72;;
9838;SDS011;4958;48.150;11.506;2023-08-06T01:42:21;3.80;;;3.38;;
9838;SDS011;4958;48.150;11.506;2023-08-06T01:44:56;5.32;;;3.80;;
9838;SDS011;4958;48.150;11.506;2023-08-06T01:47:22;4.00;;;3.35;;
9838;SDS011;4958;48.150;11.506;2023-08-06T01:49:49;3.47;;;3.17;;
9838;SDS011;4958;48.150;11.506;2023-08-06T01:52:18;3.72;;;3.42;;
9838;SDS011;4958;48.150;11.506;2023-08-06T01:54:46;3.80;;;3.40;;
9838;SDS011;4958;48.150;11.506;2023-08-06T01:57:12;3.20;;;3.00;;
9838;SDS011;4958;48.150;11.506;2023-08-06T01:59:39;4.15;;;3.22;;
9838;SDS011;4958;48.150;11.506;2023-08-06T02:02:05;3.78;;;3.33;;
9838;SDS011;4958;48.150;11.506;2023-08-06T02:04:32;3.42;;;2.97;;
9838;SDS011;4958;48.150;11.506;2023-08-06T02:06:58;3.88;;;2.90;;
9838;SDS011;4958;48.150;11.506;2023-08-06T02:09:25;4.97;;;3.10;;
9838;SDS011;4958;48.150;11.506;2023-08-06T02:11:52;3.22;;;2.92;;
9838;SDS011;4958;48.150;11.506;2023-08-06T02:14:19;3.47;;;3.17;;
9838;SDS011;4958;48.150;11.506;2023-08-06T02:16:47;3.38;;;3.08;;
9838;SDS011;4958;48.150;11.506;2023-08-06T02:19:14;2.67;;;2.47;;
9838;SDS011;4958;48.150;11.506;2023-08-06T02:21:41;3.53;;;2.75;;
9838;SDS011;4958;48.150;11.506;2023-08-06T02:24:07;2.75;;;2.55;;
9838;SDS011;4958;48.150;11.506;2023-08-06T02:26:33;2.67;;;2.47;;
9838;SDS011;4958;48.150;11.506;2023-08-06T02:29:01;2.88;;;2.53;;
9838;SDS011;4958;48.150;11.506;2023-08-06T02:31:28;2.20;;;2.10;;
9838;SDS011;4958;48.150;11.506;2023-08-06T02:33:57;2.72;;;2.53;;
9838;SDS011;4958;48.150;11.506;2023-08-06T02:36:23;2.95;;;2.50;;
9838;SDS011;4958;48.150;11.506;2023-08-06T02:38:54;2.47;;;2.28;;
9838;SDS011;4958;48.150;11.506;2023-08-06T02:41:20;3.33;;;2.17;;
9838;SDS011;4958;48.150;11.506;2023-08-06T02:43:46;2.58;;;2.38;;
9838;SDS011;4958;48.150;11.506;2023-08-06T02:46:14;2.45;;;2.25;;
9838;SDS011;4958;48.150;11.506;2023-08-06T02:48:44;2.33;;;2.13;;
9838;SDS011;4958;48.150;11.506;2023-08-06T02:51:11;2.60;;;2.40;;
9838;SDS011;4958;48.150;11.506;2023-08-06T02:53:37;2.25;;;2.15;;
9838;SDS011;4958;48.150;11.506;2023-08-06T02:56:04;2.42;;;2.22;;
9838;SDS011;4958;48.150;11.506;2023-08-06T02:58:30;2.53;;;2.33;;
9838;SDS011;4958;48.150;11.506;2023-08-06T03:01:05;2.30;;;2.10;;
9838;SDS011;4958;48.150;11.506;2023-08-06T03:03:37;2.30;;;2.10;;
9838;SDS011;4958;48.150;11.506;2023-08-06T03:06:06;3.47;;;2.10;;
9838;SDS011;4958;48.150;11.506;2023-08-06T03:08:32;3.00;;;2.08;;
9838;SDS011;4958;48.150;11.506;2023-08-06T03:10:59;2.17;;;2.00;;
9838;SDS011;4958;48.150;11.506;2023-08-06T03:13:27;3.28;;;2.20;;
9838;SDS011;4958;48.150;11.506;2023-08-06T03:15:54;3.00;;;2.40;;
9838;SDS011;4958;48.150;11.506;2023-08-06T03:18:22;3.55;;;1.98;;
9838;SDS011;4958;48.150;11.506;2023-08-06T03:20:50;3.97;;;2.35;;
9838;SDS011;4958;48.150;11.506;2023-08-06T03:23:17;2.90;;;2.30;;
9838;SDS011;4958;48.150;11.506;2023-08-06T03:25:43;2.30;;;2.10;;
9838;SDS011;4958;48.150;11.506;2023-08-06T03:28:10;3.25;;;1.92;;
9838;SDS011;4958;48.150;11.506;2023-08-06T03:30:36;3.22;;;2.20;;
9838;SDS011;4958;48.150;11.506;2023-08-06T03:33:03;2.08;;;1.80;;
9838;SDS011;4958;48.150;11.506;2023-08-06T03:35:29;2.83;;;1.92;;
9838;SDS011;4958;48.150;11.506;2023-08-06T03:37:57;1.95;;;1.85;;
9838;SDS011;4958;48.150;11.506;2023-08-06T03:40:24;2.08;;;1.90;;
9838;SDS011;4958;48.150;11.506;2023-08-06T03:42:50;2.20;;;2.10;;
9838;SDS011;4958;48.150;11.506;2023-08-06T03:45:17;2.13;;;1.92;;
9838;SDS011;4958;48.150;11.506;2023-08-06T03:47:46;2.40;;;2.20;;
9838;SDS011;4958;48.150;11.506;2023-08-06T03:50:12;2.20;;;2.00;;
9838;SDS011;4958;48.150;11.506;2023-08-06T03:52:39;2.65;;;1.90;;
9838;SDS011;4958;48.150;11.506;2023-08-06T03:55:07;2.45;;;2.10;;
9838;SDS011;4958;48.150;11.506;2023-08-06T03:57:34;4.38;;;2.15;;
9838;SDS011;4958;48.150;11.506;2023-08-06T04:00:00;2.33;;;2.10;;
9838;SDS011;4958;48.150;11.506;2023-08-06T04:02:27;2.20;;;2.00;;
9838;SDS011;4958;48.150;11.506;2023-08-06T04:04:54;2.03;;;1.92;;
9838;SDS011;4958;48.150;11.506;2023-08-06T04:07:20;3.47;;;1.98;;
9838;SDS011;4958;48.150;11.506;2023-08-06T04:09:53;3.75;;;2.08;;
9838;SDS011;4958;48.150;11.506;2023-08-06T04:12:22;3.53;;;1.90;;
9838;SDS011;4958;48.150;11.506;2023-08-06T04:14:49;2.97;;;2.00;;
9838;SDS011;4958;48.150;11.506;2023-08-06T04:17:16;2.10;;;1.90;;
9838;SDS011;4958;48.150;11.506;2023-08-06T04:19:45;2.33;;;1.80;;
9838;SDS011;4958;48.150;11.506;2023-08-06T04:22:12;2.10;;;1.63;;
9838;SDS011;4958;48.150;11.506;2023-08-06T04:24:38;2.47;;;2.00;;
9838;SDS011;4958;48.150;11.506;2023-08-06T04:27:05;2.15;;;1.90;;
9838;SDS011;4958;48.150;11.506;2023-08-06T04:29:34;2.15;;;1.90;;
9838;SDS011;4958;48.150;11.506;2023-08-06T04:32:00;2.00;;;1.90;;
9838;SDS011;4958;48.150;11.506;2023-08-06T04:34:27;2.45;;;1.83;;
9838;SDS011;4958;48.150;11.506;2023-08-06T04:36:53;3.40;;;1.98;;
9838;SDS011;4958;48.150;11.506;2023-08-06T04:39:19;1.75;;;1.65;;
9838;SDS011;4958;48.150;11.506;2023-08-06T04:41:46;2.97;;;1.92;;
9838;SDS011;4958;48.150;11.506;2023-08-06T04:44:12;1.77;;;1.67;;
9838;SDS011;4958;48.150;11.506;2023-08-06T04:46:40;4.22;;;1.50;;
9838;SDS011;4958;48.150;11.506;2023-08-06T04:49:06;3.22;;;2.08;;
9838;SDS011;4958;48.150;11.506;2023-08-06T04:51:33;1.90;;;1.80;;
9838;SDS011;4958;48.150;11.506;2023-08-06T04:53:59;3.88;;;2.00;;
9838;SDS011;4958;48.150;11.506;2023-08-06T04:56:26;1.77;;;1.67;;
9838;SDS011;4958;48.150;11.506;2023-08-06T04:58:52;1.90;;;1.80;;
9838;SDS011;4958;48.150;11.506;2023-08-06T05:01:19;3.42;;;1.80;;
9838;SDS011;4958;48.150;11.506;2023-08-06T05:03:47;2.00;;;1.85;;
9838;SDS011;4958;48.150;11.506;2023-08-06T05:06:13;2.20;;;1.75;;
9838;SDS011;4958;48.150;11.506;2023-08-06T05:08:40;2.67;;;1.73;;
9838;SDS011;4958;48.150;11.506;2023-08-06T05:11:06;2.05;;;1.75;;
9838;SDS011;4958;48.150;11.506;2023-08-06T05:13:33;2.17;;;1.70;;
9838;SDS011;4958;48.150;11.506;2023-08-06T05:15:59;2.15;;;1.80;;
9838;SDS011;4958;48.150;11.506;2023-08-06T05:18:26;2.40;;;1.73;;
9838;SDS011;4958;48.150;11.506;2023-08-06T05:20:54;3.20;;;1.80;;
9838;SDS011;4958;48.150;11.506;2023-08-06T05:23:24;2.38;;;1.70;;
9838;SDS011;4958;48.150;11.506;2023-08-06T05:25:50;2.00;;;1.90;;
9838;SDS011;4958;48.150;11.506;2023-08-06T05:28:17;1.90;;;1.80;;
9838;SDS011;4958;48.150;11.506;2023-08-06T05:30:43;2.08;;;1.88;;
9838;SDS011;4958;48.150;11.506;2023-08-06T05:33:10;2.28;;;1.88;;
9838;SDS011;4958;48.150;11.506;2023-08-06T05:35:36;2.00;;;1.80;;
9838;SDS011;4958;48.150;11.506;2023-08-06T05:38:10;2.58;;;1.65;;
9838;SDS011;4958;48.150;11.506;2023-08-06T05:40:36;1.65;;;1.55;;
9838;SDS011;4958;48.150;11.506;2023-08-06T05:43:03;2.28;;;2.00;;
9838;SDS011;4958;48.150;11.506;2023-08-06T05:45:29;1.77;;;1.67;;
9838;SDS011;4958;48.150;11.506;2023-08-06T05:47:56;2.85;;;1.95;;
9838;SDS011;4958;48.150;11.506;2023-08-06T05:50:23;2.10;;;1.95;;
9838;SDS011;4958;48.150;11.506;2023-08-06T05:52:56;2.15;;;1.95;;
9838;SDS011;4958;48.150;11.506;2023-08-06T05:55:23;1.98;;;1.80;;
9838;SDS011;4958;48.150;11.506;2023-08-06T05:57:50;3.78;;;1.80;;
9838;SDS011;4958;48.150;11.506;2023-08-06T06:00:17;5.15;;;1.77;;
9838;SDS011;4958;48.150;11.506;2023-08-06T06:02:44;2.58;;;1.65;;
9838;SDS011;4958;48.150;11.506;2023-08-06T06:05:11;1.70;;;1.55;;
9838;SDS011;4958;48.150;11.506;2023-08-06T06:07:38;2.05;;;1.50;;
9838;SDS011;4958;48.150;11.506;2023-08-06T06:10:05;1.83;;;1.50;;
9838;SDS011;4958;48.150;11.506;2023-08-06T06:12:33;1.60;;;1.50;;
9838;SDS011;4958;48.150;11.506;2023-08-06T06:15:00;1.70;;;1.60;;
9838;SDS011;4958;48.150;11.506;2023-08-06T06:17:27;2.42;;;2.10;;
9838;SDS011;4958;48.150;11.506;2023-08-06T06:19:53;2.08;;;1.60;;
9838;SDS011;4958;48.150;11.506;2023-08-06T06:22:20;1.60;;;1.50;;
9838;SDS011;4958;48.150;11.506;2023-08-06T06:24:49;1.60;;;1.50;;
9838;SDS011;4958;48.150;11.506;2023-08-06T06:27:15;1.88;;;1.60;;
9838;SDS011;4958;48.150;11.506;2023-08-06T06:29:43;1.60;;;1.50;;
9838;SDS011;4958;48.150;11.506;2023-08-06T06:32:09;1.67;;;1.58;;
9838;SDS011;4958;48.150;11.506;2023-08-06T06:34:36;1.70;;;1.60;;
9838;SDS011;4958;48.150;11.506;2023-08-06T06:37:02;2.72;;;1.60;;
9838;SDS011;4958;48.150;11.506;2023-08-06T06:39:29;2.33;;;1.50;;
9838;SDS011;4958;48.150;11.506;2023-08-06T06:41:58;2.45;;;1.65;;
9838;SDS011;4958;48.150;11.506;2023-08-06T06:44:24;1.75;;;1.38;;
9838;SDS011;4958;48.150;11.506;2023-08-06T06:46:52;1.42;;;1.33;;
9838;SDS011;4958;48.150;11.506;2023-08-06T06:49:19;1.70;;;1.58;;
9838;SDS011;4958;48.150;11.506;2023-08-06T06:51:45;1.65;;;1.52;;
9838;SDS011;4958;48.150;11.506;2023-08-06T06:54:12;2.10;;;1.50;;
9838;SDS011;4958;48.150;11.506;2023-08-06T06:56:38;1.70;;;1.55;;
9838;SDS011;4958;48.150;11.506;2023-08-06T06:59:07;1.55;;;1.42;;
9838;SDS011;4958;48.150;11.506;2023-08-06T07:01:34;1.50;;;1.23;;
9838;SDS011;4958;48.150;11.506;2023-08-06T07:04:02;1.65;;;1.48;;
9838;SDS011;4958;48.150;11.506;2023-08-06T07:06:30;2.30;;;1.17;;
9838;SDS011;4958;48.150;11.506;2023-08-06T07:09:01;3.20;;;1.30;;
9838;SDS011;4958;48.150;11.506;2023-08-06T07:11:33;1.42;;;1.20;;
9838;SDS011;4958;48.150;11.506;2023-08-06T07:14:09;1.58;;;1.20;;
9838;SDS011;4958;48.150;11.506;2023-08-06T07:16:35;1.48;;;1.08;;
9838;SDS011;4958;48.150;11.506;2023-08-06T07:19:12;2.05;;;1.55;;
9838;SDS011;4958;48.150;11.506;2023-08-06T07:21:48;2.17;;;1.13;;
9838;SDS011;4958;48.150;11.506;2023-08-06T07:24:15;1.15;;;0.85;;
9838;SDS011;4958;48.150;11.506;2023-08-06T07:26:43;1.38;;;0.90;;
9838;SDS011;4958;48.150;11.506;2023-08-06T07:29:09;1.13;;;1.02;;
9838;SDS011;4958;48.150;11.506;2023-08-06T07:31:35;2.15;;;1.05;;
9838;SDS011;4958;48.150;11.506;2023-08-06T07:34:02;3.08;;;1.08;;
9838;SDS011;4958;48.150;11.506;2023-08-06T07:36:36;1.17;;;1.08;;
9838;SDS011;4958;48.150;11.506;2023-08-06T07:39:02;1.05;;;1.00;;
9838;SDS011;4958;48.150;11.506;2023-08-06T07:41:31;1.02;;;1.00;;
9838;SDS011;4958;48.150;11.506;2023-08-06T07:43:57;0.98;;;0.88;;
9838;SDS011;4958;48.150;11.506;2023-08-06T07:46:24;0.80;;;0.80;;
9838;SDS011;4958;48.150;11.506;2023-08-06T07:48:50;1.75;;;1.00;;
9838;SDS011;4958;48.150;11.506;2023-08-06T07:51:17;1.58;;;1.00;;
9838;SDS011;4958;48.150;11.506;2023-08-06T07:53:44;1.35;;;0.98;;
9838;SDS011;4958;48.150;11.506;2023-08-06T07:56:11;1.10;;;0.90;;
9838;SDS011;4958;48.150;11.506;2023-08-06T07:58:37;1.05;;;0.93;;
9838;SDS011;4958;48.150;11.506;2023-08-06T08:01:07;0.80;;;0.70;;
9838;SDS011;4958;48.150;11.506;2023-08-06T08:03:38;1.17;;;1.00;;
9838;SDS011;4958;48.150;11.506;2023-08-06T08:06:07;1.20;;;1.10;;
9838;SDS011;4958;48.150;11.506;2023-08-06T08:08:34;1.73;;;0.95;;
9838;SDS011;4958;48.150;11.506;2023-08-06T08:11:05;1.35;;;1.00;;
9838;SDS011;4958;48.150;11.506;2023-08-06T08:13:53;1.25;;;1.00;;
9838;SDS011;4958;48.150;11.506;2023-08-06T08:16:41;1.30;;;0.85;;
9838;SDS011;4958;48.150;11.506;2023-08-06T08:19:07;2.00;;;0.82;;
9838;SDS011;4958;48.150;11.506;2023-08-06T08:21:34;1.35;;;0.88;;
9838;SDS011;4958;48.150;11.506;2023-08-06T08:31:37;0.70;;;0.70;;
9838;SDS011;4958;48.150;11.506;2023-08-06T08:40:43;1.08;;;0.70;;
9838;SDS011;4958;48.150;11.506;2023-08-06T08:46:28;1.50;;;0.60;;
9838;SDS011;4958;48.150;11.506;2023-08-06T08:49:19;5.28;;;0.90;;
9838;SDS011;4958;48.150;11.506;2023-08-06T08:52:22;0.50;;;0.50;;
9838;SDS011;4958;48.150;11.506;2023-08-06T08:54:56;0.50;;;0.50;;
9838;SDS011;4958;48.150;11.506;2023-08-06T08:57:57;0.98;;;0.60;;
9838;SDS011;4958;48.150;11.506;2023-08-06T09:00:25;0.98;;;0.55;;
9838;SDS011;4958;48.150;11.506;2023-08-06T09:03:04;0.65;;;0.40;;
9838;SDS011;4958;48.150;11.506;2023-08-06T09:05:44;0.60;;;0.60;;
9838;SDS011;4958;48.150;11.506;2023-08-06T09:08:15;0.47;;;0.40;;
9838;SDS011;4958;48.150;11.506;2023-08-06T09:10:48;1.45;;;0.57;;
9838;SDS011;4958;48.150;11.506;2023-08-06T09:13:25;0.85;;;0.50;;
9838;SDS011;4958;48.150;11.506;2023-08-06T09:15:52;1.05;;;0.50;;
9838;SDS011;4958;48.150;11.506;2023-08-06T09:18:26;0.40;;;0.40;;
9838;SDS011;4958;48.150;11.506;2023-08-06T09:21:03;2.78;;;0.70;;
9838;SDS011;4958;48.150;11.506;2023-08-06T09:23:30;1.40;;;0.82;;
9838;SDS011;4958;48.150;11.506;2023-08-06T09:26:01;0.40;;;0.40;;
9838;SDS011;4958;48.150;11.506;2023-08-06T09:28:37;0.50;;;0.50;;
9838;SDS011;4958;48.150;11.506;2023-08-06T09:31:14;0.75;;;0.50;;
9838;SDS011;4958;48.150;11.506;2023-08-06T09:34:06;0.98;;;0.47;;
9838;SDS011;4958;48.150;11.506;2023-08-06T09:37:03;0.65;;;0.60;;
9838;SDS011;4958;48.150;11.506;2023-08-06T09:39:32;0.40;;;0.40;;
9838;SDS011;4958;48.150;11.506;2023-08-06T09:41:59;0.45;;;0.45;;
9838;SDS011;4958;48.150;11.506;2023-08-06T09:44:51;0.60;;;0.40;;
9838;SDS011;4958;48.150;11.506;2023-08-06T09:47:21;0.88;;;0.68;;
9838;SDS011;4958;48.150;11.506;2023-08-06T09:49:57;0.80;;;0.50;;
9838;SDS011;4958;48.150;11.506;2023-08-06T09:52:25;1.25;;;0.50;;
9838;SDS011;4958;48.150;11.506;2023-08-06T09:57:48;0.43;;;0.35;;
9838;SDS011;4958;48.150;11.506;2023-08-06T10:00:15;2.88;;;0.60;;
9838;SDS011;4958;48.150;11.506;2023-08-06T10:02:48;0.40;;;0.40;;
9838;SDS011;4958;48.150;11.506;2023-08-06T10:05:21;0.43;;;0.40;;
9838;SDS011;4958;48.150;11.506;2023-08-06T10:07:52;2.08;;;0.40;;
9838;SDS011;4958;48.150;11.506;2023-08-06T10:10:23;1.67;;;0.60;;
9838;SDS011;4958;48.150;11.506;2023-08-06T10:13:07;1.20;;;0.50;;
9838;SDS011;4958;48.150;11.506;2023-08-06T10:15:47;0.30;;;0.30;;
9838;SDS011;4958;48.150;11.506;2023-08-06T10:18:25;0.35;;;0.35;;
9838;SDS011;4958;48.150;11.506;2023-08-06T10:21:13;0.50;;;0.50;;
9838;SDS011;4958;48.150;11.506;2023-08-06T10:24:46;1.20;;;0.40;;
9838;SDS011;4958;48.150;11.506;2023-08-06T10:27:59;0.45;;;0.45;;
9838;SDS011;4958;48.150;11.506;2023-08-06T10:31:31;1.40;;;0.40;;
9838;SDS011;4958;48.150;11.506;2023-08-06T10:34:22;0.40;;;0.40;;
9838;SDS011;4958;48.150;11.506;2023-08-06T10:36:59;0.70;;;0.60;;
9838;SDS011;4958;48.150;11.506;2023-08-06T10:43:24;0.65;;;0.45;;
9838;SDS011;4958;48.150;11.506;2023-08-06T10:49:17;0.60;;;0.60;;
9838;SDS011;4958;48.150;11.506;2023-08-06T10:52:04;1.17;;;0.50;;
9838;SDS011;4958;48.150;11.506;2023-08-06T10:54:35;0.95;;;0.40;;
9838;SDS011;4958;48.150;11.506;2023-08-06T11:00:27;1.17;;;0.40;;
9838;SDS011;4958;48.150;11.506;2023-08-06T11:03:00;0.30;;;0.30;;
9838;SDS011;4958;48.150;11.506;2023-08-06T11:06:09;0.30;;;0.30;;
9838;SDS011;4958;48.150;11.506;2023-08-06T11:08:37;0.70;;;0.60;;
9838;SDS011;4958;48.150;11.506;2023-08-06T11:11:22;4.40;;;0.40;;
9838;SDS011;4958;48.150;11.506;2023-08-06T11:14:24;0.20;;;0.20;;
9838;SDS011;4958;48.150;11.506;2023-08-06T11:17:21;1.10;;;0.40;;
9838;SDS011;4958;48.150;11.506;2023-08-06T11:19:54;0.30;;;0.30;;
9838;SDS011;4958;48.150;11.506;2023-08-06T11:22:51;0.65;;;0.35;;
9838;SDS011;4958;48.150;11.506;2023-08-06T11:25:20;2.30;;;0.50;;
9838;SDS011;4958;48.150;11.506;2023-08-06T11:27:55;0.50;;;0.50;;
9838;SDS011;4958;48.150;11.506;2023-08-06T11:30:43;0.40;;;0.40;;
9838;SDS011;4958;48.150;11.506;2023-08-06T11:33:10;0.47;;;0.30;;
9838;SDS011;4958;48.150;11.506;2023-08-06T11:38:47;0.30;;;0.30;;
9838;SDS011;4958;48.150;11.506;2023-08-06T11:41:23;0.40;;;0.40;;
9838;SDS011;4958;48.150;11.506;2023-08-06T11:46:57;0.30;;;0.30;;
9838;SDS011;4958;48.150;11.506;2023-08-06T11:50:35;0.88;;;0.32;;
9838;SDS011;4958;48.150;11.506;2023-08-06T11:54:31;0.30;;;0.30;;
9838;SDS011;4958;48.150;11.506;2023-08-06T11:56:39;0.38;;;0.38;;
9838;SDS011;4958;48.150;11.506;2023-08-06T11:59:22;0.47;;;0.47;;
9838;SDS011;4958;48.150;11.506;2023-08-06T12:02:03;2.38;;;1.55;;
9838;SDS011;4958;48.150;11.506;2023-08-06T12:07:40;1.27;;;1.17;;
9838;SDS011;4958;48.150;11.506;2023-08-06T12:10:16;0.63;;;0.60;;
9838;SDS011;4958;48.150;11.506;2023-08-06T12:13:02;0.52;;;0.30;;
9838;SDS011;4958;48.150;11.506;2023-08-06T12:15:29;0.40;;;0.40;;
9838;SDS011;4958;48.150;11.506;2023-08-06T12:17:58;0.35;;;0.32;;
9838;SDS011;4958;48.150;11.506;2023-08-06T12:20:31;0.40;;;0.40;;
9838;SDS011;4958;48.150;11.506;2023-08-06T12:22:59;1.42;;;0.35;;
9838;SDS011;4958;48.150;11.506;2023-08-06T12:25:25;0.75;;;0.40;;
9838;SDS011;4958;48.150;11.506;2023-08-06T12:27:59;0.30;;;0.30;;
9838;SDS011;4958;48.150;11.506;2023-08-06T12:30:32;2.15;;;1.98;;
9838;SDS011;4958;48.150;11.506;2023-08-06T12:32:59;0.52;;;0.50;;
9838;SDS011;4958;48.150;11.506;2023-08-06T12:35:26;3.63;;;3.33;;
9838;SDS011;4958;48.150;11.506;2023-08-06T12:37:54;7.75;;;7.05;;
9838;SDS011;4958;48.150;11.506;2023-08-06T12:40:35;4.72;;;4.32;;
9838;SDS011;4958;48.150;11.506;2023-08-06T12:43:05;17.13;;;8.23;;
9838;SDS011;4958;48.150;11.506;2023-08-06T12:45:31;2.65;;;2.38;;
9838;SDS011;4958;48.150;11.506;2023-08-06T12:48:13;2.75;;;1.65;;
9838;SDS011;4958;48.150;11.506;2023-08-06T12:50:42;4.57;;;1.95;;
9838;SDS011;4958;48.150;11.506;2023-08-06T12:53:11;6.43;;;5.82;;
9838;SDS011;4958;48.150;11.506;2023-08-06T12:55:49;3.55;;;3.25;;
9838;SDS011;4958;48.150;11.506;2023-08-06T12:58:26;0.88;;;0.82;;
9838;SDS011;4958;48.150;11.506;2023-08-06T13:00:57;1.40;;;0.40;;
9838;SDS011;4958;48.150;11.506;2023-08-06T13:03:37;1.33;;;0.40;;
9838;SDS011;4958;48.150;11.506;2023-08-06T13:06:09;1.20;;;0.50;;
9838;SDS011;4958;48.150;11.506;2023-08-06T13:09:18;0.60;;;0.60;;
9838;SDS011;4958;48.150;11.506;2023-08-06T13:12:07;0.40;;;0.40;;
9838;SDS011;4958;48.150;11.506;2023-08-06T13:14:34;0.82;;;0.40;;
9838;SDS011;4958;48.150;11.506;2023-08-06T13:17:20;0.60;;;0.60;;
9838;SDS011;4958;48.150;11.506;2023-08-06T13:19:55;1.52;;;0.50;;
9838;SDS011;4958;48.150;11.506;2023-08-06T13:22:41;0.52;;;0.50;;
9838;SDS011;4958;48.150;11.506;2023-08-06T13:28:10;0.40;;;0.40;;
9838;SDS011;4958;48.150;11.506;2023-08-06T13:31:00;1.25;;;0.43;;
9838;SDS011;4958;48.150;11.506;2023-08-06T13:33:45;0.38;;;0.38;;
9838;SDS011;4958;48.150;11.506;2023-08-06T13:36:25;0.85;;;0.40;;
9838;SDS011;4958;48.150;11.506;2023-08-06T13:39:18;0.52;;;0.40;;
9838;SDS011;4958;48.150;11.506;2023-08-06T13:41:54;0.40;;;0.40;;
9838;SDS011;4958;48.150;11.506;2023-08-06T13:44:35;0.40;;;0.40;;
9838;SDS011;4958;48.150;11.506;2023-08-06T13:47:01;1.27;;;0.50;;
9838;SDS011;4958;48.150;11.506;2023-08-06T13:49:31;0.50;;;0.40;;
9838;SDS011;4958;48.150;11.506;2023-08-06T13:52:00;0.32;;;0.32;;
9838;SDS011;4958;48.150;11.506;2023-08-06T13:54:27;0.40;;;0.40;;
9838;SDS011;4958;48.150;11.506;2023-08-06T13:56:56;0.40;;;0.40;;
9838;SDS011;4958;48.150;11.506;2023-08-06T13:59:23;0.40;;;0.40;;
9838;SDS011;4958;48.150;11.506;2023-08-06T14:01:51;0.30;;;0.30;;
9838;SDS011;4958;48.150;11.506;2023-08-06T14:04:18;0.40;;;0.40;;
9838;SDS011;4958;48.150;11.506;2023-08-06T14:06:46;1.42;;;0.50;;
9838;SDS011;4958;48.150;11.506;2023-08-06T14:09:12;0.40;;;0.40;;
9838;SDS011;4958;48.150;11.506;2023-08-06T14:11:49;0.40;;;0.40;;
9838;SDS011;4958;48.150;11.506;2023-08-06T14:14:47;0.38;;;0.38;;
9838;SDS011;4958;48.150;11.506;2023-08-06T14:20:23;1.35;;;0.40;;
9838;SDS011;4958;48.150;11.506;2023-08-06T14:22:49;0.63;;;0.50;;
9838;SDS011;4958;48.150;11.506;2023-08-06T14:25:16;0.52;;;0.52;;
9838;SDS011;4958;48.150;11.506;2023-08-06T14:27:42;0.47;;;0.45;;
9838;SDS011;4958;48.150;11.506;2023-08-06T14:30:09;0.40;;;0.40;;
9838;SDS011;4958;48.150;11.506;2023-08-06T14:32:36;0.68;;;0.68;;
9838;SDS011;4958;48.150;11.506;2023-08-06T14:35:12;0.50;;;0.50;;
9838;SDS011;4958;48.150;11.506;2023-08-06T14:37:39;1.95;;;0.60;;
9838;SDS011;4958;48.150;11.506;2023-08-06T14:40:06;0.50;;;0.50;;
9838;SDS011;4958;48.150;11.506;2023-08-06T14:42:34;0.45;;;0.38;;
9838;SDS011;4958;48.150;11.506;2023-08-06T14:45:03;1.08;;;0.40;;
9838;SDS011;4958;48.150;11.506;2023-08-06T14:47:38;0.60;;;0.50;;
9838;SDS011;4958;48.150;11.506;2023-08-06T14:50:06;0.47;;;0.47;;
9838;SDS011;4958;48.150;11.506;2023-08-06T14:52:39;0.50;;;0.45;;
9838;SDS011;4958;48.150;11.506;2023-08-06T14:55:15;0.43;;;0.43;;
9838;SDS011;4958;48.150;11.506;2023-08-06T14:57:44;0.50;;;0.50;;
9838;SDS011;4958;48.150;11.506;2023-08-06T15:00:22;0.50;;;0.50;;
9838;SDS011;4958;48.150;11.506;2023-08-06T15:03:03;0.52;;;0.50;;
9838;SDS011;4958;48.150;11.506;2023-08-06T15:05:31;0.50;;;0.50;;
9838;SDS011;4958;48.150;11.506;2023-08-06T15:07:57;0.90;;;0.70;;
9838;SDS011;4958;48.150;11.506;2023-08-06T15:10:27;0.40;;;0.40;;
9838;SDS011;4958;48.150;11.506;2023-08-06T15:12:56;0.52;;;0.52;;
9838;SDS011;4958;48.150;11.506;2023-08-06T15:15:26;0.40;;;0.40;;
9838;SDS011;4958;48.150;11.506;2023-08-06T15:17:52;1.95;;;0.57;;
9838;SDS011;4958;48.150;11.506;2023-08-06T15:20:19;0.40;;;0.40;;
9838;SDS011;4958;48.150;11.506;2023-08-06T15:28:27;0.50;;;0.50;;
9838;SDS011;4958;48.150;11.506;2023-08-06T15:30:57;0.57;;;0.40;;
9838;SDS011;4958;48.150;11.506;2023-08-06T15:33:38;0.50;;;0.50;;
9838;SDS011;4958;48.150;11.506;2023-08-06T15:37:29;0.57;;;0.50;;
9838;SDS011;4958;48.150;11.506;2023-08-06T15:47:20;0.60;;;0.60;;
9838;SDS011;4958;48.150;11.506;2023-08-06T15:49:47;2.90;;;0.60;;
9838;SDS011;4958;48.150;11.506;2023-08-06T16:01:35;2.17;;;0.90;;
9838;SDS011;4958;48.150;11.506;2023-08-06T16:06:58;1.63;;;0.93;;
9838;SDS011;4958;48.150;11.506;2023-08-06T16:22:36;0.50;;;0.50;;
9838;SDS011;4958;48.150;11.506;2023-08-06T16:25:03;1.48;;;0.60;;
9838;SDS011;4958;48.150;11.506;2023-08-06T16:27:30;0.65;;;0.57;;
9838;SDS011;4958;48.150;11.506;2023-08-06T16:29:56;0.65;;;0.50;;
9838;SDS011;4958;48.150;11.506;2023-08-06T16:32:26;0.60;;;0.60;;
9838;SDS011;4958;48.150;11.506;2023-08-06T16:38:36;1.55;;;1.35;;
9838;SDS011;4958;48.150;11.506;2023-08-06T16:44:36;0.60;;;0.60;;
9838;SDS011;4958;48.150;11.506;2023-08-06T16:47:07;0.50;;;0.50;;
9838;SDS011;4958;48.150;11.506;2023-08-06T16:49:50;1.42;;;0.60;;
9838;SDS011;4958;48.150;11.506;2023-08-06T16:52:29;0.90;;;0.60;;
9838;SDS011;4958;48.150;11.506;2023-08-06T16:55:08;0.60;;;0.60;;
9838;SDS011;4958;48.150;11.506;2023-08-06T16:57:34;0.85;;;0.50;;
9838;SDS011;4958;48.150;11.506;2023-08-06T17:00:01;0.82;;;0.55;;